createdAt,value
2018-11-07T00:00:50.765Z,99975.63
2018-11-07T00:03:21.443Z,99981.14
2018-11-07T00:05:51.219Z,99987.30
2018-11-07T00:08:21.283Z,99985.88
2018-11-07T00:10:51.128Z,99988.31
2018-11-07T00:13:21.103Z,99981.70
2018-11-07T00:15:51.085Z,99981.79
2018-11-07T00:18:20.923Z,99984.13
2018-11-07T00:20:50.781Z,99987.13
2018-11-07T00:23:20.592Z,99976.59
2018-11-07T00:25:50.374Z,99980.31
2018-11-07T00:28:20.398Z,99983.91
2018-11-07T00:30:50.178Z,99980.36
2018-11-07T00:33:20.093Z,99984.72
2018-11-07T00:35:49.850Z,99984.03
2018-11-07T00:38:19.679Z,99981.70
2018-11-07T00:40:49.425Z,99990.75
2018-11-07T00:43:19.475Z,99988.77
2018-11-07T00:45:49.540Z,99993.16
2018-11-07T00:48:19.379Z,100002.48
2018-11-07T00:50:49.254Z,99997.16
2018-11-07T00:53:19.219Z,100008.67
2018-11-07T00:55:49.027Z,100006.45
2018-11-07T00:58:19.052Z,100010.60
2018-11-07T01:00:48.995Z,100008.30
2018-11-07T01:03:18.939Z,100004.07
2018-11-07T01:05:49.017Z,100011.92
2018-11-07T01:08:18.891Z,100011.41
2018-11-07T01:10:48.783Z,100006.21
2018-11-07T01:13:18.659Z,100000.71
2018-11-07T01:15:48.443Z,100006.56
2018-11-07T01:18:18.620Z,100001.14
2018-11-07T01:20:48.532Z,100008.12
2018-11-07T01:23:18.653Z,100011.22
2018-11-07T01:25:48.697Z,100012.77
2018-11-07T01:28:18.936Z,100014.63
2018-11-07T01:30:48.609Z,100012.48
2018-11-07T01:33:18.347Z,100016.14
2018-11-07T01:35:48.351Z,100003.53
2018-11-07T01:38:18.387Z,100001.94
2018-11-07T01:40:48.417Z,100008.67
2018-11-07T01:43:18.270Z,100017.17
2018-11-07T01:45:48.268Z,100006.02
2018-11-07T01:48:18.120Z,100005.58
2018-11-07T01:50:47.971Z,100006.20
2018-11-07T01:53:17.923Z,100000.95
2018-11-07T01:55:47.823Z,99997.72
2018-11-07T01:58:17.861Z,99989.17
2018-11-07T02:00:47.863Z,99989.09
2018-11-07T02:03:17.855Z,99982.03
2018-11-07T02:05:47.772Z,99979.90
2018-11-07T02:08:17.843Z,99977.06
2018-11-07T02:10:48.797Z,99981.96
2018-11-07T02:13:18.635Z,99987.86
2018-11-07T02:15:48.452Z,99993.95
2018-11-07T02:18:18.538Z,99993.46
2018-11-07T02:20:48.523Z,99991.19
2018-11-07T02:23:18.556Z,99986.34
2018-11-07T02:25:48.888Z,99984.57
2018-11-07T02:28:18.855Z,99993.84
2018-11-07T02:30:48.633Z,99997.97
2018-11-07T02:33:18.803Z,99997.66
2018-11-07T02:35:48.971Z,100007.67
2018-11-07T02:38:18.819Z,100007.38
2018-11-07T02:40:48.712Z,100004.54
2018-11-07T02:43:18.590Z,99999.73
2018-11-07T02:45:48.463Z,100005.30
2018-11-07T02:48:18.439Z,100001.56
2018-11-07T02:50:48.200Z,100013.41
2018-11-07T02:53:18.282Z,100011.70
2018-11-07T02:55:48.163Z,100010.84
2018-11-07T02:58:18.986Z,100002.20
2018-11-07T03:00:48.959Z,100009.11
2018-11-07T03:03:19.002Z,100009.78
2018-11-07T03:05:48.855Z,100005.89
2018-11-07T03:08:18.859Z,100002.83
2018-11-07T03:10:49.025Z,100007.59
2018-11-07T03:13:18.819Z,100010.19
2018-11-07T03:15:48.983Z,100012.48
2018-11-07T03:18:18.782Z,100002.45
2018-11-07T03:20:48.644Z,100000.71
2018-11-07T03:23:18.493Z,100003.45
2018-11-07T03:25:48.394Z,100009.78
2018-11-07T03:28:18.272Z,100005.05
2018-11-07T03:30:48.135Z,100003.31
2018-11-07T03:33:17.964Z,100008.16
2018-11-07T03:35:47.817Z,100005.42
2018-11-07T03:38:17.629Z,100004.98
2018-11-07T03:40:47.592Z,99998.53
2018-11-07T03:43:17.426Z,100012.36
2018-11-07T03:45:52.691Z,100005.40
2018-11-07T03:48:22.432Z,100008.42
2018-11-07T03:50:52.232Z,100001.63
2018-11-07T03:53:22.506Z,99993.77
2018-11-07T03:55:52.180Z,99993.46
2018-11-07T03:58:21.976Z,100000.96
2018-11-07T04:00:52.064Z,99995.22
2018-11-07T04:03:22.215Z,100001.00
2018-11-07T04:05:52.065Z,99994.76
2018-11-07T04:08:22.682Z,99992.73
2018-11-07T04:10:52.548Z,99991.17
2018-11-07T04:13:22.586Z,99988.38
2018-11-07T04:15:52.667Z,99986.51
2018-11-07T04:18:22.443Z,99995.03
2018-11-07T04:20:52.266Z,99993.53
2018-11-07T04:23:22.232Z,99986.17
2018-11-07T04:25:52.163Z,99986.56
2018-11-07T04:28:22.075Z,99982.07
2018-11-07T04:30:57.324Z,99975.95
2018-11-07T04:33:27.079Z,99971.81
2018-11-07T04:35:56.854Z,99975.63
2018-11-07T04:38:26.779Z,99975.71
2018-11-07T04:40:56.922Z,99986.95
2018-11-07T04:43:26.778Z,99972.42
2018-11-07T04:45:56.632Z,99981.44
2018-11-07T04:48:26.359Z,99975.56
2018-11-07T04:50:56.343Z,99981.31
2018-11-07T04:53:26.406Z,99972.80
2018-11-07T04:55:56.355Z,99971.04
2018-11-07T04:58:26.681Z,99971.50
2018-11-07T05:00:56.483Z,99973.04
2018-11-07T05:03:26.259Z,99974.48
2018-11-07T05:05:56.162Z,99980.77
2018-11-07T05:08:26.464Z,99990.48
2018-11-07T05:10:56.289Z,99979.68
2018-11-07T05:13:26.322Z,99982.69
2018-11-07T05:15:56.307Z,99976.85
2018-11-07T05:18:26.135Z,99980.84
2018-11-07T05:20:56.670Z,99988.09
2018-11-07T05:23:26.596Z,99986.17
2018-11-07T05:25:56.579Z,99981.14
2018-11-07T05:28:26.267Z,99982.07
2018-11-07T05:30:56.068Z,99979.23
2018-11-07T05:33:25.796Z,99979.38
2018-11-07T05:35:55.595Z,99981.97
2018-11-07T05:38:25.400Z,99998.66
2018-11-07T05:40:55.303Z,100004.37
2018-11-07T05:43:25.758Z,100008.43
2018-11-07T05:45:55.555Z,100001.94
2018-11-07T05:48:28.041Z,100006.72
2018-11-07T05:50:58.068Z,100011.41
2018-11-07T05:53:27.909Z,100012.09
2018-11-07T05:55:57.724Z,100015.66
2018-11-07T05:58:27.564Z,100017.69
2018-11-07T06:00:57.509Z,100011.94
2018-11-07T06:03:27.258Z,99996.48
2018-11-07T06:05:57.234Z,100011.53
2018-11-07T06:08:27.183Z,100007.58
2018-11-07T06:10:57.100Z,100003.89
2018-11-07T06:13:26.839Z,100013.23
2018-11-07T06:15:56.738Z,100021.03
2018-11-07T06:18:26.403Z,100022.16
2018-11-07T06:20:57.110Z,100022.45
2018-11-07T06:23:27.856Z,100016.59
2018-11-07T06:25:57.741Z,100012.73
2018-11-07T06:28:27.401Z,100012.34
2018-11-07T06:30:57.438Z,100019.87
2018-11-07T06:33:27.323Z,100009.87
2018-11-07T06:35:57.166Z,100015.63
2018-11-07T06:38:29.774Z,100019.22
2018-11-07T06:41:09.102Z,100018.98
2018-11-07T06:43:38.812Z,100023.58
2018-11-07T06:46:09.120Z,100020.19
2018-11-07T06:48:44.479Z,100014.44
2018-11-07T06:51:14.345Z,100006.93
2018-11-07T06:53:44.242Z,100002.17
2018-11-07T06:56:13.947Z,100003.13
2018-11-07T06:59:09.716Z,100013.64
2018-11-07T07:01:39.475Z,100018.90
2018-11-07T07:04:09.299Z,100024.94
2018-11-07T07:06:39.220Z,100023.59
2018-11-07T07:09:10.141Z,100026.18
2018-11-07T07:11:40.173Z,100015.75
2018-11-07T07:14:16.879Z,100012.31
2018-11-07T07:16:46.887Z,100003.61
2018-11-07T07:19:16.590Z,100007.80
2018-11-07T07:21:50.773Z,100013.06
2018-11-07T07:24:30.803Z,100011.60
2018-11-07T07:27:00.751Z,100006.16
2018-11-07T07:29:30.533Z,100002.59
2018-11-07T07:32:00.241Z,100020.23
2018-11-07T07:34:30.044Z,100021.02
2018-11-07T07:37:15.961Z,100018.80
2018-11-07T07:39:45.698Z,100016.66
2018-11-07T07:42:15.375Z,100022.10
2018-11-07T07:47:23.094Z,100015.56
2018-11-07T07:49:52.792Z,100023.66
2018-11-07T07:52:24.296Z,100031.75
2018-11-07T07:54:54.083Z,100028.49
2018-11-07T07:57:27.701Z,100024.73
2018-11-07T07:59:57.592Z,100025.80
2018-11-07T08:02:27.323Z,100026.13
2018-11-07T08:04:57.093Z,100018.92
2018-11-07T08:07:26.831Z,100028.27
2018-11-07T08:09:56.642Z,100030.77
2018-11-07T08:12:26.397Z,100031.94
2018-11-07T08:15:02.368Z,100025.95
2018-11-07T08:17:32.265Z,100028.64
2018-11-07T08:20:02.023Z,100038.36
2018-11-07T08:22:32.198Z,100032.23
2018-11-07T08:25:02.141Z,100030.17
2018-11-07T08:27:31.888Z,100029.72
2018-11-07T08:30:01.882Z,100031.62
2018-11-07T08:32:31.823Z,100034.31
2018-11-07T08:35:01.788Z,100033.80
2018-11-07T08:37:33.590Z,100035.80
2018-11-07T08:40:08.101Z,100033.06
2018-11-07T08:42:38.384Z,100027.52
2018-11-07T08:45:09.387Z,100024.68
2018-11-07T08:47:40.151Z,100020.55
2018-11-07T08:50:13.291Z,100024.03
2018-11-07T08:52:43.762Z,100022.67
2018-11-07T08:55:15.841Z,100017.16
2018-11-07T08:57:45.661Z,100013.45
2018-11-07T09:00:24.416Z,100020.13
2018-11-07T09:02:54.382Z,100028.62
2018-11-07T09:05:24.233Z,100022.98
2018-11-07T09:07:54.194Z,100026.83
2018-11-07T09:10:24.644Z,100028.98
2018-11-07T09:12:54.527Z,100017.06
2018-11-07T09:15:24.402Z,100014.52
2018-11-07T09:17:54.395Z,100009.34
2018-11-07T09:20:25.018Z,100018.18
2018-11-07T09:22:54.855Z,100008.45
2018-11-07T09:25:24.801Z,100008.89
2018-11-07T09:28:08.415Z,100019.69
2018-11-07T09:30:47.008Z,100004.76
2018-11-07T09:33:16.850Z,100010.69
2018-11-07T09:35:56.152Z,100013.01
2018-11-07T09:38:26.063Z,100018.39
2018-11-07T09:40:55.848Z,100026.30
2018-11-07T09:43:25.614Z,100023.06
2018-11-07T09:46:05.596Z,100023.84
2018-11-07T09:48:41.447Z,100017.52
2018-11-07T09:51:11.171Z,100026.92
2018-11-07T09:53:41.082Z,100033.95
2018-11-07T09:56:10.864Z,100023.20
2018-11-07T09:58:40.675Z,100028.23
2018-11-07T10:01:20.989Z,100025.48
2018-11-07T10:10:22.090Z,100020.06
2018-11-07T10:12:52.298Z,100025.29
2018-11-07T10:15:22.512Z,100017.36
2018-11-07T10:17:52.368Z,100012.41
2018-11-07T10:20:23.357Z,100009.97
2018-11-07T10:22:53.359Z,100017.50
2018-11-07T10:25:26.002Z,100012.64
2018-11-07T10:27:56.408Z,100012.45
2018-11-07T10:30:25.872Z,100014.94
2018-11-07T10:32:55.644Z,100017.84
2018-11-07T10:35:25.412Z,100011.99
2018-11-07T10:37:55.358Z,100012.20
2018-11-07T10:40:52.484Z,100016.80
2018-11-07T10:46:18.872Z,100010.14
2018-11-07T10:48:48.676Z,100013.19
2018-11-07T10:51:25.338Z,100001.34
2018-11-07T10:53:55.380Z,100004.39
2018-11-07T10:56:31.509Z,100002.09
2018-11-07T10:59:01.470Z,99999.53
2018-11-07T11:01:52.127Z,100002.98
2018-11-07T11:04:22.151Z,100000.42
2018-11-07T11:06:51.956Z,100008.87
2018-11-07T11:09:21.811Z,99994.13
2018-11-07T11:11:56.814Z,99995.91
2018-11-07T11:14:30.134Z,99988.59
2018-11-07T11:17:00.135Z,99992.86
2018-11-07T11:19:56.617Z,99992.32
2018-11-07T11:22:35.751Z,99992.59
2018-11-07T11:25:05.789Z,99999.36
2018-11-07T11:27:53.090Z,99995.13
2018-11-07T11:30:22.820Z,99994.17
2018-11-07T11:32:52.571Z,99987.27
2018-11-07T11:35:22.571Z,99997.50
2018-11-07T11:37:52.321Z,99992.41
2018-11-07T11:40:22.760Z,99989.81
2018-11-07T11:42:52.748Z,100000.77
2018-11-07T11:45:22.692Z,99983.69
2018-11-07T11:47:52.450Z,99992.58
2018-11-07T11:50:22.551Z,99997.83
2018-11-07T11:52:52.958Z,99995.64
2018-11-07T11:55:22.983Z,99992.34
2018-11-07T11:57:52.817Z,99995.60
2018-11-07T12:00:22.806Z,99982.66
2018-11-07T12:02:53.377Z,99982.66
2018-11-07T12:05:23.420Z,99975.99
2018-11-07T12:07:53.587Z,99979.99
2018-11-07T12:10:26.155Z,99978.02
2018-11-07T12:12:58.802Z,99987.19
2018-11-07T12:15:31.283Z,99984.02
2018-11-07T12:21:10.391Z,99986.39
2018-11-07T12:23:40.414Z,99985.09
2018-11-07T12:26:10.427Z,99985.96
2018-11-07T12:28:40.512Z,99984.67
2018-11-07T12:31:11.471Z,99984.67
2018-11-07T12:33:41.286Z,99979.94
2018-11-07T12:36:12.428Z,99992.33
2018-11-07T12:38:42.242Z,99989.17
2018-11-07T12:41:31.016Z,99992.72
2018-11-07T12:44:24.805Z,99986.98
2018-11-07T12:46:55.144Z,99998.94
2018-11-07T12:49:28.642Z,99987.23
2018-11-07T12:51:58.453Z,99979.63
2018-11-07T12:54:28.251Z,99986.04
2018-11-07T12:56:58.232Z,99982.72
2018-11-07T12:59:28.149Z,99991.31
2018-11-07T13:05:42.111Z,99988.92
2018-11-07T13:08:19.610Z,99980.03
2018-11-07T13:13:47.320Z,99990.00
2018-11-07T13:16:17.302Z,99991.31
2018-11-07T13:18:47.050Z,99989.91
2018-11-07T13:21:17.024Z,99994.11
2018-11-07T13:23:46.799Z,99988.38
2018-11-07T13:26:16.792Z,99996.53
2018-11-07T13:28:46.594Z,99996.28
2018-11-07T13:31:33.266Z,99999.11
2018-11-07T13:34:06.762Z,99992.05
2018-11-07T13:36:36.933Z,99991.41
2018-11-07T13:39:11.632Z,99996.13
2018-11-07T13:42:03.363Z,99992.86
2018-11-07T13:45:15.989Z,99994.51
2018-11-07T13:47:55.344Z,99996.34
2018-11-07T13:50:25.492Z,100001.28
2018-11-07T13:52:55.250Z,99998.19
2018-11-07T13:58:36.190Z,100010.92
2018-11-07T14:01:07.496Z,100017.36
2018-11-07T14:06:37.596Z,100024.62
2018-11-07T14:09:11.500Z,100021.30
2018-11-07T14:11:54.002Z,100030.70
2018-11-07T14:14:24.591Z,100026.23
2018-11-07T14:17:19.515Z,100039.09
2018-11-07T14:19:50.324Z,100040.05
2018-11-07T14:22:20.220Z,100044.76
2018-11-07T14:24:50.136Z,100048.03
2018-11-07T14:27:46.476Z,100055.33
2018-11-07T14:33:24.543Z,100059.83
2018-11-07T14:35:54.991Z,100066.86
2018-11-07T14:38:25.262Z,100068.61
2018-11-07T14:40:55.117Z,100070.24
2018-11-07T14:43:25.731Z,100080.13
2018-11-07T14:46:00.758Z,100076.35
2018-11-07T14:48:30.740Z,100086.25
2018-11-07T14:51:06.898Z,100087.72
2018-11-07T14:53:36.821Z,100093.23
2018-11-07T14:56:08.096Z,100088.89
2018-11-07T14:58:38.105Z,100101.36
2018-11-07T15:01:08.027Z,100098.73
2018-11-07T15:03:37.743Z,100101.14
2018-11-07T15:06:07.785Z,100103.57
2018-11-07T15:08:37.657Z,100105.38
2018-11-07T15:11:13.318Z,100107.81
2018-11-07T15:16:41.961Z,100103.41
2018-11-07T15:19:11.924Z,100103.77
2018-11-07T15:21:52.575Z,100110.09
2018-11-07T15:24:22.336Z,100108.09
2018-11-07T15:26:52.247Z,100108.87
2018-11-07T15:29:21.985Z,100105.24
2018-11-07T15:31:51.879Z,100110.91
2018-11-07T15:34:21.659Z,100106.33
2018-11-07T15:36:51.573Z,100106.80
2018-11-07T15:39:37.066Z,100108.16
2018-11-07T15:42:07.146Z,100102.28
2018-11-07T15:44:36.934Z,100102.22
2018-11-07T15:47:07.096Z,100112.16
2018-11-07T15:49:40.837Z,100117.98
2018-11-07T15:52:13.303Z,100120.48
2018-11-07T15:54:43.787Z,100118.47
2018-11-07T15:57:47.067Z,100129.34
2018-11-07T16:00:18.735Z,100124.58
2018-11-07T16:02:49.060Z,100130.11
2018-11-07T16:05:19.782Z,100141.42
2018-11-07T16:07:49.705Z,100134.33
2018-11-07T16:10:20.997Z,100144.73
2018-11-07T16:12:50.994Z,100148.00
2018-11-07T16:18:55.274Z,100158.29
2018-11-07T16:21:25.038Z,100161.95
2018-11-07T16:23:55.545Z,100169.34
2018-11-07T16:26:25.592Z,100167.27
2018-11-07T16:28:55.847Z,100174.97
2018-11-07T16:31:25.686Z,100177.21
2018-11-07T16:34:04.234Z,100172.37
2018-11-07T16:36:34.128Z,100182.64
2018-11-07T16:39:05.747Z,100187.98
2018-11-07T16:41:35.809Z,100187.06
2018-11-07T16:44:05.738Z,100197.79
2018-11-07T16:46:35.651Z,100194.91
2018-11-07T16:49:05.611Z,100198.84
2018-11-07T16:51:35.335Z,100190.78
2018-11-07T16:54:06.443Z,100191.05
2018-11-07T16:56:36.881Z,100192.94
2018-11-07T16:59:07.044Z,100198.07
2018-11-07T17:01:46.370Z,100191.27
2018-11-07T17:04:16.300Z,100198.09
2018-11-07T17:06:47.192Z,100203.22
2018-11-07T17:09:17.091Z,100204.91
2018-11-07T17:11:46.971Z,100200.51
2018-11-07T17:14:16.807Z,100207.14
2018-11-07T17:16:46.711Z,100216.86
2018-11-07T17:19:18.678Z,100216.67
2018-11-07T17:21:48.745Z,100220.88
2018-11-07T17:24:19.268Z,100224.33
2018-11-07T17:26:49.160Z,100226.02
2018-11-07T17:29:18.948Z,100225.83
2018-11-07T17:31:49.824Z,100227.58
2018-11-07T17:34:19.740Z,100233.48
2018-11-07T17:36:49.543Z,100230.49
2018-11-07T17:39:19.503Z,100239.08
2018-11-07T17:41:49.290Z,100246.19
2018-11-07T17:44:19.059Z,100248.50
2018-11-07T17:46:48.840Z,100245.25
2018-11-07T17:49:18.808Z,100243.95
2018-11-07T17:51:48.557Z,100251.02
2018-11-07T17:54:18.812Z,100246.26
2018-11-07T17:56:52.467Z,100246.09
2018-11-07T17:59:22.433Z,100247.50
2018-11-07T18:01:53.206Z,100245.42
2018-11-07T18:04:23.035Z,100249.58
2018-11-07T18:06:52.827Z,100253.77
2018-11-07T18:09:28.338Z,100256.92
2018-11-07T18:11:58.184Z,100266.08
2018-11-07T18:14:28.924Z,100264.90
2018-11-07T18:16:58.791Z,100266.84
2018-11-07T18:19:31.329Z,100267.41
2018-11-07T18:22:09.672Z,100271.91
2018-11-07T18:24:39.744Z,100275.52
2018-11-07T18:27:20.093Z,100282.53
2018-11-07T18:29:49.988Z,100283.67
2018-11-07T18:32:20.981Z,100288.13
2018-11-07T18:34:51.113Z,100293.19
2018-11-07T18:37:20.916Z,100295.44
2018-11-07T18:39:50.648Z,100291.87
2018-11-07T18:42:20.408Z,100299.98
2018-11-07T18:44:50.146Z,100303.34
2018-11-07T18:47:19.974Z,100301.03
2018-11-07T18:49:49.726Z,100299.98
2018-11-07T18:52:19.602Z,100304.54
2018-11-07T18:54:49.358Z,100308.83
2018-11-07T18:57:19.091Z,100308.47
2018-11-07T18:59:48.884Z,100318.55
2018-11-07T19:02:18.679Z,100320.06
2018-11-07T19:04:48.480Z,100325.09
2018-11-07T19:07:18.264Z,100330.20
2018-11-07T19:09:48.051Z,100335.43
2018-11-07T19:12:17.770Z,100337.25
2018-11-07T19:14:47.629Z,100342.80
2018-11-07T19:17:17.520Z,100336.25
2018-11-07T19:19:47.309Z,100335.90
2018-11-07T19:22:17.113Z,100336.73
2018-11-07T19:24:46.842Z,100340.28
2018-11-07T19:27:16.877Z,100342.78
2018-11-07T19:29:46.563Z,100349.69
2018-11-07T19:32:16.579Z,100346.35
2018-11-07T19:34:46.620Z,100357.06
2018-11-07T19:37:16.622Z,100354.56
2018-11-07T19:39:46.498Z,100356.69
2018-11-07T19:42:16.379Z,100353.89
2018-11-07T19:44:46.273Z,100362.39
2018-11-07T19:47:17.123Z,100366.67
2018-11-07T19:49:47.623Z,100368.73
2018-11-07T19:52:17.461Z,100362.59
2018-11-07T19:55:02.138Z,100372.53
2018-11-07T19:57:32.731Z,100375.80
2018-11-07T20:00:02.857Z,100379.74
2018-11-07T20:02:32.939Z,100385.55
2018-11-07T20:05:02.869Z,100396.83
2018-11-07T20:07:32.742Z,100396.61
2018-11-07T20:10:03.036Z,100403.52
2018-11-07T20:12:32.731Z,100399.13
2018-11-07T20:15:03.071Z,100403.98
2018-11-07T20:17:33.429Z,100409.12
2018-11-07T20:20:03.987Z,100416.48
2018-11-07T20:22:33.907Z,100416.02
2018-11-07T20:25:03.867Z,100419.08
2018-11-07T20:27:33.713Z,100423.27
2018-11-07T20:30:03.560Z,100430.02
2018-11-07T20:32:33.242Z,100434.84
2018-11-07T20:35:03.027Z,100432.89
2018-11-07T20:37:32.845Z,100445.36
2018-11-07T20:40:02.808Z,100440.08
2018-11-07T20:42:32.595Z,100444.77
2018-11-07T20:45:02.386Z,100447.38
2018-11-07T20:47:32.102Z,100448.16
2018-11-07T20:50:01.945Z,100447.94
2018-11-07T20:52:31.818Z,100453.08
2018-11-07T20:55:01.785Z,100456.09
2018-11-07T20:57:31.531Z,100465.89
2018-11-07T21:00:01.463Z,100463.28
2018-11-07T21:02:31.412Z,100469.44
2018-11-07T21:05:01.309Z,100459.55
2018-11-07T21:07:31.183Z,100469.06
2018-11-07T21:10:01.010Z,100464.17
2018-11-07T21:12:30.958Z,100467.16
2018-11-07T21:15:00.857Z,100473.25
2018-11-07T21:17:30.864Z,100465.48
2018-11-07T21:20:00.670Z,100470.15
2018-11-07T21:22:30.526Z,100472.72
2018-11-07T21:25:00.352Z,100471.57
2018-11-07T21:27:30.690Z,100476.33
2018-11-07T21:30:00.939Z,100482.58
2018-11-07T21:32:31.022Z,100485.38
2018-11-07T21:35:00.972Z,100486.05
2018-11-07T21:37:30.886Z,100485.68
2018-11-07T21:40:00.905Z,100487.91
2018-11-07T21:42:30.768Z,100489.02
2018-11-07T21:45:00.495Z,100489.72
2018-11-07T21:47:30.236Z,100492.09
2018-11-07T21:49:59.976Z,100499.80
2018-11-07T21:52:30.131Z,100501.61
2018-11-07T21:55:00.025Z,100500.30
2018-11-07T21:57:29.802Z,100501.48
2018-11-07T21:59:59.685Z,100503.25
2018-11-07T22:02:29.614Z,100508.70
2018-11-07T22:04:59.615Z,100516.69
2018-11-07T22:07:29.448Z,100520.00
2018-11-07T22:09:59.410Z,100523.54
2018-11-07T22:12:29.130Z,100529.00
2018-11-07T22:14:58.951Z,100529.31
2018-11-07T22:17:28.872Z,100529.84
2018-11-07T22:19:59.201Z,100531.75
2018-11-07T22:22:29.247Z,100528.06
2018-11-07T22:24:59.073Z,100518.79
2018-11-07T22:27:29.301Z,100527.31
2018-11-07T22:29:59.426Z,100534.13
2018-11-07T22:32:29.233Z,100535.39
2018-11-07T22:34:59.186Z,100535.62
2018-11-07T22:37:29.062Z,100540.00
2018-11-07T22:39:58.810Z,100531.14
2018-11-07T22:42:28.583Z,100535.62
2018-11-07T22:44:58.333Z,100535.99
2018-11-07T22:47:28.034Z,100541.45
2018-11-07T22:49:58.739Z,100542.37
2018-11-07T22:52:28.566Z,100541.07
2018-11-07T22:55:00.312Z,100538.61
2018-11-07T22:57:30.128Z,100545.78
2018-11-07T22:59:59.990Z,100553.90
2018-11-07T23:02:33.542Z,100566.87
2018-11-07T23:05:17.476Z,100563.27
2018-11-07T23:07:47.316Z,100564.05
2018-11-07T23:10:17.083Z,100568.11
2018-11-07T23:12:47.451Z,100573.19
2018-11-07T23:15:48.721Z,100579.39
2018-11-07T23:18:20.623Z,100579.16
2018-11-07T23:20:50.445Z,100588.23
2018-11-07T23:23:20.174Z,100594.28
2018-11-07T23:25:50.993Z,100585.25
2018-11-07T23:28:20.805Z,100584.55
2018-11-07T23:30:50.740Z,100584.17
2018-11-07T23:33:20.607Z,100592.99
2018-11-07T23:35:50.362Z,100598.39
2018-11-07T23:38:20.141Z,100592.77
2018-11-07T23:40:51.327Z,100589.94
2018-11-07T23:43:21.207Z,100597.59
2018-11-07T23:45:51.464Z,100595.61
2018-11-07T23:48:24.706Z,100600.67
2018-11-07T23:50:54.512Z,100603.58
2018-11-07T23:53:24.321Z,100608.34
2018-11-07T23:55:54.192Z,100613.94
2018-11-07T23:58:24.399Z,100613.91
